sensor_id;sensor_type;location;lat;lon;timestamp;pressure;altitude;pressure_sealevel;temperature;humidity
49949;BME280;35840;45.982;8.890;2023-12-22T00:02:21;97028.25;;;3.49;80.79
49949;BME280;35840;45.982;8.890;2023-12-22T00:04:49;97035.53;;;3.39;82.75
49949;BME280;35840;45.982;8.890;2023-12-22T00:07:17;97049.53;;;3.31;83.51
49949;BME280;35840;45.982;8.890;2023-12-22T00:09:43;97045.94;;;3.51;83.02
49949;BME280;35840;45.982;8.890;2023-12-22T00:12:10;97039.94;;;3.36;84.42
49949;BME280;35840;45.982;8.890;2023-12-22T00:14:37;97066.69;;;3.59;82.75
49949;BME280;35840;45.982;8.890;2023-12-22T00:17:07;97062.16;;;3.48;83.12
49949;BME280;35840;45.982;8.890;2023-12-22T00:19:34;97061.94;;;3.69;83.14
49949;BME280;35840;45.982;8.890;2023-12-22T00:22:01;97058.78;;;3.79;82.44
49949;BME280;35840;45.982;8.890;2023-12-22T00:24:30;97056.84;;;3.85;82.14
49949;BME280;35840;45.982;8.890;2023-12-22T00:26:56;97046.28;;;3.60;83.02
49949;BME280;35840;45.982;8.890;2023-12-22T00:29:23;97045.53;;;3.74;83.64
49949;BME280;35840;45.982;8.890;2023-12-22T00:31:50;97027.63;;;3.92;82.15
49949;BME280;35840;45.982;8.890;2023-12-22T00:34:17;97028.91;;;3.69;83.84
49949;BME280;35840;45.982;8.890;2023-12-22T00:36:46;97036.41;;;3.86;83.57
49949;BME280;35840;45.982;8.890;2023-12-22T00:39:13;97029.59;;;3.87;83.51
49949;BME280;35840;45.982;8.890;2023-12-22T00:41:40;97027.66;;;3.60;86.04
49949;BME280;35840;45.982;8.890;2023-12-22T00:44:07;97028.72;;;3.72;86.75
49949;BME280;35840;45.982;8.890;2023-12-22T00:46:34;97014.63;;;3.66;86.64
49949;BME280;35840;45.982;8.890;2023-12-22T00:49:00;97012.16;;;3.81;86.71
49949;BME280;35840;45.982;8.890;2023-12-22T00:51:28;97022.47;;;3.93;85.61
49949;BME280;35840;45.982;8.890;2023-12-22T00:53:55;97023.00;;;3.52;88.48
49949;BME280;35840;45.982;8.890;2023-12-22T00:56:22;97021.66;;;3.61;88.50
49949;BME280;35840;45.982;8.890;2023-12-22T00:58:49;97017.41;;;3.77;87.27
49949;BME280;35840;45.982;8.890;2023-12-22T01:01:27;97022.75;;;3.73;88.45
49949;BME280;35840;45.982;8.890;2023-12-22T01:03:54;97025.97;;;3.91;87.58
49949;BME280;35840;45.982;8.890;2023-12-22T01:06:21;97034.69;;;4.03;85.34
49949;BME280;35840;45.982;8.890;2023-12-22T01:08:52;97027.09;;;4.01;86.22
49949;BME280;35840;45.982;8.890;2023-12-22T01:11:19;97040.91;;;3.97;86.13
49949;BME280;35840;45.982;8.890;2023-12-22T01:13:46;97033.81;;;3.72;88.68
49949;BME280;35840;45.982;8.890;2023-12-22T01:16:13;97037.75;;;3.77;87.87
49949;BME280;35840;45.982;8.890;2023-12-22T01:18:42;97023.63;;;3.72;88.86
49949;BME280;35840;45.982;8.890;2023-12-22T01:21:11;97030.53;;;3.86;89.09
49949;BME280;35840;45.982;8.890;2023-12-22T01:23:38;97034.59;;;3.88;88.03
49949;BME280;35840;45.982;8.890;2023-12-22T01:26:05;97032.53;;;3.95;87.89
49949;BME280;35840;45.982;8.890;2023-12-22T01:28:33;97043.56;;;3.95;87.92
49949;BME280;35840;45.982;8.890;2023-12-22T01:31:00;97048.72;;;3.62;90.12
49949;BME280;35840;45.982;8.890;2023-12-22T01:33:27;97049.13;;;3.54;90.42
49949;BME280;35840;45.982;8.890;2023-12-22T01:35:56;97052.16;;;3.77;89.50
49949;BME280;35840;45.982;8.890;2023-12-22T01:38:23;97063.97;;;3.78;90.63
49949;BME280;35840;45.982;8.890;2023-12-22T01:40:50;97061.84;;;3.86;90.61
49949;BME280;35840;45.982;8.890;2023-12-22T01:43:16;97048.56;;;3.97;93.68
49949;BME280;35840;45.982;8.890;2023-12-22T01:45:50;97053.88;;;4.08;92.15
49949;BME280;35840;45.982;8.890;2023-12-22T01:48:19;97063.69;;;4.14;90.85
49949;BME280;35840;45.982;8.890;2023-12-22T01:50:46;97065.75;;;4.08;91.00
49949;BME280;35840;45.982;8.890;2023-12-22T01:53:14;97079.53;;;4.04;91.58
49949;BME280;35840;45.982;8.890;2023-12-22T01:55:41;97079.66;;;4.17;91.46
49949;BME280;35840;45.982;8.890;2023-12-22T01:58:08;97079.44;;;4.21;90.25
49949;BME280;35840;45.982;8.890;2023-12-22T02:00:37;97079.94;;;4.12;90.86
49949;BME280;35840;45.982;8.890;2023-12-22T02:03:04;97078.59;;;4.21;90.52
49949;BME280;35840;45.982;8.890;2023-12-22T02:05:31;97090.22;;;3.94;91.72
49949;BME280;35840;45.982;8.890;2023-12-22T02:07:58;97086.59;;;3.99;91.95
49949;BME280;35840;45.982;8.890;2023-12-22T02:10:25;97088.53;;;4.09;91.44
49949;BME280;35840;45.982;8.890;2023-12-22T02:12:52;97100.38;;;4.10;90.50
49949;BME280;35840;45.982;8.890;2023-12-22T02:15:19;97094.47;;;4.10;91.36
49949;BME280;35840;45.982;8.890;2023-12-22T02:18:08;97091.19;;;3.92;92.12
49949;BME280;35840;45.982;8.890;2023-12-22T02:20:36;97068.81;;;3.99;91.72
49949;BME280;35840;45.982;8.890;2023-12-22T02:23:04;97076.00;;;4.06;90.68
49949;BME280;35840;45.982;8.890;2023-12-22T02:25:30;97062.41;;;3.91;91.29
49949;BME280;35840;45.982;8.890;2023-12-22T02:28:33;97060.66;;;4.08;90.95
49949;BME280;35840;45.982;8.890;2023-12-22T02:31:07;97060.25;;;4.00;90.42
49949;BME280;35840;45.982;8.890;2023-12-22T02:33:37;97061.03;;;3.86;92.13
49949;BME280;35840;45.982;8.890;2023-12-22T02:36:07;97077.81;;;3.88;92.59
49949;BME280;35840;45.982;8.890;2023-12-22T02:38:36;97064.78;;;3.94;92.79
49949;BME280;35840;45.982;8.890;2023-12-22T02:41:04;97070.34;;;4.01;92.02
49949;BME280;35840;45.982;8.890;2023-12-22T02:43:32;97066.91;;;4.02;92.20
49949;BME280;35840;45.982;8.890;2023-12-22T02:45:59;97073.09;;;4.12;91.89
49949;BME280;35840;45.982;8.890;2023-12-22T02:48:26;97070.16;;;4.20;91.52
49949;BME280;35840;45.982;8.890;2023-12-22T02:50:53;97077.63;;;4.23;90.69
49949;BME280;35840;45.982;8.890;2023-12-22T02:53:20;97073.19;;;4.11;90.94
49949;BME280;35840;45.982;8.890;2023-12-22T02:55:47;97063.03;;;4.11;91.20
49949;BME280;35840;45.982;8.890;2023-12-22T02:58:14;97047.72;;;3.96;92.72
49949;BME280;35840;45.982;8.890;2023-12-22T03:00:41;97046.88;;;4.12;91.88
49949;BME280;35840;45.982;8.890;2023-12-22T03:03:08;97055.91;;;4.02;91.74
49949;BME280;35840;45.982;8.890;2023-12-22T03:05:34;97049.47;;;3.80;93.36
49949;BME280;35840;45.982;8.890;2023-12-22T03:08:01;97038.19;;;4.00;92.22
49949;BME280;35840;45.982;8.890;2023-12-22T03:10:29;97034.25;;;4.10;91.98
49949;BME280;35840;45.982;8.890;2023-12-22T03:12:56;97044.41;;;4.10;91.62
49949;BME280;35840;45.982;8.890;2023-12-22T03:15:23;97045.97;;;4.13;90.99
49949;BME280;35840;45.982;8.890;2023-12-22T03:17:50;97048.59;;;4.11;91.82
49949;BME280;35840;45.982;8.890;2023-12-22T03:20:17;97044.69;;;4.06;91.97
49949;BME280;35840;45.982;8.890;2023-12-22T03:22:44;97055.84;;;4.03;92.54
49949;BME280;35840;45.982;8.890;2023-12-22T03:25:10;97055.59;;;3.92;93.46
49949;BME280;35840;45.982;8.890;2023-12-22T03:27:37;97049.34;;;3.97;93.53
49949;BME280;35840;45.982;8.890;2023-12-22T03:30:05;97054.19;;;4.02;94.30
49949;BME280;35840;45.982;8.890;2023-12-22T03:32:32;97057.38;;;4.06;93.59
49949;BME280;35840;45.982;8.890;2023-12-22T03:34:59;97064.84;;;4.09;94.30
49949;BME280;35840;45.982;8.890;2023-12-22T03:37:26;97066.81;;;4.04;95.27
49949;BME280;35840;45.982;8.890;2023-12-22T03:39:52;97050.22;;;4.12;95.15
49949;BME280;35840;45.982;8.890;2023-12-22T03:42:19;97060.78;;;4.21;94.30
49949;BME280;35840;45.982;8.890;2023-12-22T03:44:46;97064.97;;;4.22;94.52
49949;BME280;35840;45.982;8.890;2023-12-22T03:47:13;97066.81;;;4.20;95.03
49949;BME280;35840;45.982;8.890;2023-12-22T03:49:42;97069.63;;;4.29;94.59
49949;BME280;35840;45.982;8.890;2023-12-22T03:52:08;97081.13;;;4.37;94.40
49949;BME280;35840;45.982;8.890;2023-12-22T03:54:35;97071.44;;;4.27;94.80
49949;BME280;35840;45.982;8.890;2023-12-22T03:57:02;97077.47;;;4.41;94.38
49949;BME280;35840;45.982;8.890;2023-12-22T03:59:29;97084.97;;;4.44;93.61
49949;BME280;35840;45.982;8.890;2023-12-22T04:01:57;97084.03;;;4.45;94.96
49949;BME280;35840;45.982;8.890;2023-12-22T04:04:27;97083.59;;;4.38;96.08
49949;BME280;35840;45.982;8.890;2023-12-22T04:06:54;97072.56;;;4.38;95.64
49949;BME280;35840;45.982;8.890;2023-12-22T04:09:21;97077.88;;;4.49;94.88
49949;BME280;35840;45.982;8.890;2023-12-22T04:11:48;97077.47;;;4.41;94.73
49949;BME280;35840;45.982;8.890;2023-12-22T04:14:15;97093.69;;;4.40;94.84
49949;BME280;35840;45.982;8.890;2023-12-22T04:16:42;97096.66;;;4.46;94.90
49949;BME280;35840;45.982;8.890;2023-12-22T04:19:09;97093.84;;;4.37;95.63
49949;BME280;35840;45.982;8.890;2023-12-22T04:21:38;97078.50;;;4.38;94.20
49949;BME280;35840;45.982;8.890;2023-12-22T04:24:05;97078.06;;;4.46;93.94
49949;BME280;35840;45.982;8.890;2023-12-22T04:26:32;97086.94;;;4.39;94.83
49949;BME280;35840;45.982;8.890;2023-12-22T04:28:59;97101.22;;;4.41;93.81
49949;BME280;35840;45.982;8.890;2023-12-22T04:31:26;97098.97;;;4.51;93.30
49949;BME280;35840;45.982;8.890;2023-12-22T04:33:53;97084.00;;;4.61;92.64
49949;BME280;35840;45.982;8.890;2023-12-22T04:36:20;97085.91;;;4.57;92.22
49949;BME280;35840;45.982;8.890;2023-12-22T04:38:46;97083.00;;;4.63;91.92
49949;BME280;35840;45.982;8.890;2023-12-22T04:41:13;97077.00;;;4.64;92.24
49949;BME280;35840;45.982;8.890;2023-12-22T04:43:40;97076.38;;;4.61;92.13
49949;BME280;35840;45.982;8.890;2023-12-22T04:46:07;97092.38;;;4.63;91.23
49949;BME280;35840;45.982;8.890;2023-12-22T04:48:34;97087.75;;;4.70;89.86
49949;BME280;35840;45.982;8.890;2023-12-22T04:51:01;97101.03;;;4.75;89.02
49949;BME280;35840;45.982;8.890;2023-12-22T04:53:28;97102.72;;;4.60;90.42
49949;BME280;35840;45.982;8.890;2023-12-22T04:55:55;97102.47;;;4.64;90.04
49949;BME280;35840;45.982;8.890;2023-12-22T04:58:22;97102.28;;;4.68;89.80
49949;BME280;35840;45.982;8.890;2023-12-22T05:00:50;97096.66;;;4.62;90.88
49949;BME280;35840;45.982;8.890;2023-12-22T05:03:17;97109.50;;;4.75;89.67
49949;BME280;35840;45.982;8.890;2023-12-22T05:05:44;97103.94;;;4.83;87.79
49949;BME280;35840;45.982;8.890;2023-12-22T05:08:11;97103.13;;;4.82;88.60
49949;BME280;35840;45.982;8.890;2023-12-22T05:10:38;97111.19;;;4.75;89.14
49949;BME280;35840;45.982;8.890;2023-12-22T05:13:05;97127.03;;;4.80;88.16
49949;BME280;35840;45.982;8.890;2023-12-22T05:15:31;97122.84;;;4.79;87.76
49949;BME280;35840;45.982;8.890;2023-12-22T05:17:58;97124.69;;;4.77;87.67
49949;BME280;35840;45.982;8.890;2023-12-22T05:20:25;97127.31;;;4.75;88.07
49949;BME280;35840;45.982;8.890;2023-12-22T05:22:52;97142.78;;;4.56;90.21
49949;BME280;35840;45.982;8.890;2023-12-22T05:25:19;97134.44;;;4.54;90.41
49949;BME280;35840;45.982;8.890;2023-12-22T05:27:46;97157.91;;;4.59;90.27
49949;BME280;35840;45.982;8.890;2023-12-22T05:30:13;97154.94;;;4.67;89.95
49949;BME280;35840;45.982;8.890;2023-12-22T05:32:40;97166.28;;;4.61;89.69
49949;BME280;35840;45.982;8.890;2023-12-22T05:35:07;97180.66;;;4.62;89.24
49949;BME280;35840;45.982;8.890;2023-12-22T05:37:34;97167.22;;;4.75;88.96
49949;BME280;35840;45.982;8.890;2023-12-22T05:40:01;97180.44;;;4.81;88.12
49949;BME280;35840;45.982;8.890;2023-12-22T05:42:28;97185.06;;;5.05;86.12
49949;BME280;35840;45.982;8.890;2023-12-22T05:44:54;97194.16;;;5.09;87.14
49949;BME280;35840;45.982;8.890;2023-12-22T05:47:21;97186.59;;;5.08;87.15
49949;BME280;35840;45.982;8.890;2023-12-22T05:49:48;97191.13;;;5.03;87.33
49949;BME280;35840;45.982;8.890;2023-12-22T05:52:15;97204.47;;;4.92;87.54
49949;BME280;35840;45.982;8.890;2023-12-22T05:54:42;97196.94;;;4.74;89.79
49949;BME280;35840;45.982;8.890;2023-12-22T05:57:09;97216.09;;;4.65;90.30
49949;BME280;35840;45.982;8.890;2023-12-22T05:59:35;97213.38;;;4.69;90.06
49949;BME280;35840;45.982;8.890;2023-12-22T06:02:03;97211.75;;;4.68;90.63
49949;BME280;35840;45.982;8.890;2023-12-22T06:04:30;97212.03;;;4.47;91.64
49949;BME280;35840;45.982;8.890;2023-12-22T06:06:57;97216.69;;;4.55;89.82
49949;BME280;35840;45.982;8.890;2023-12-22T06:09:24;97219.63;;;4.63;89.82
49949;BME280;35840;45.982;8.890;2023-12-22T06:11:51;97221.44;;;4.45;92.20
49949;BME280;35840;45.982;8.890;2023-12-22T06:14:18;97224.91;;;4.44;91.28
49949;BME280;35840;45.982;8.890;2023-12-22T06:16:45;97224.75;;;4.47;90.99
49949;BME280;35840;45.982;8.890;2023-12-22T06:19:11;97233.19;;;4.47;90.81
49949;BME280;35840;45.982;8.890;2023-12-22T06:21:39;97237.72;;;4.58;89.42
49949;BME280;35840;45.982;8.890;2023-12-22T06:24:08;97245.75;;;4.67;89.08
49949;BME280;35840;45.982;8.890;2023-12-22T06:26:35;97244.69;;;4.71;88.74
49949;BME280;35840;45.982;8.890;2023-12-22T06:29:02;97248.69;;;4.75;88.83
49949;BME280;35840;45.982;8.890;2023-12-22T06:31:30;97248.78;;;4.73;87.89
49949;BME280;35840;45.982;8.890;2023-12-22T06:33:57;97263.66;;;4.65;88.36
49949;BME280;35840;45.982;8.890;2023-12-22T06:36:29;97256.09;;;4.79;87.60
49949;BME280;35840;45.982;8.890;2023-12-22T06:38:58;97263.66;;;4.81;88.11
49949;BME280;35840;45.982;8.890;2023-12-22T06:43:55;97273.38;;;5.05;87.57
49949;BME280;35840;45.982;8.890;2023-12-22T06:46:23;97282.03;;;5.02;87.82
49949;BME280;35840;45.982;8.890;2023-12-22T06:48:53;97288.81;;;5.02;87.76
49949;BME280;35840;45.982;8.890;2023-12-22T06:51:28;97291.38;;;5.02;88.17
49949;BME280;35840;45.982;8.890;2023-12-22T06:54:00;97281.19;;;5.02;88.78
49949;BME280;35840;45.982;8.890;2023-12-22T06:56:33;97280.22;;;4.88;87.38
49949;BME280;35840;45.982;8.890;2023-12-22T06:59:01;97292.28;;;5.00;88.15
49949;BME280;35840;45.982;8.890;2023-12-22T07:01:33;97294.00;;;5.00;87.73
49949;BME280;35840;45.982;8.890;2023-12-22T07:04:02;97294.75;;;5.02;87.42
49949;BME280;35840;45.982;8.890;2023-12-22T07:06:31;97290.19;;;5.23;83.71
49949;BME280;35840;45.982;8.890;2023-12-22T07:11:51;97292.97;;;6.79;63.92
49949;BME280;35840;45.982;8.890;2023-12-22T07:14:19;97261.56;;;7.31;60.77
49949;BME280;35840;45.982;8.890;2023-12-22T07:16:46;97306.72;;;7.71;59.92
49949;BME280;35840;45.982;8.890;2023-12-22T07:19:13;97291.91;;;7.89;59.05
49949;BME280;35840;45.982;8.890;2023-12-22T07:21:40;97288.41;;;8.03;58.07
49949;BME280;35840;45.982;8.890;2023-12-22T07:24:10;97305.41;;;8.30;57.07
49949;BME280;35840;45.982;8.890;2023-12-22T07:26:38;97308.16;;;8.39;57.07
49949;BME280;35840;45.982;8.890;2023-12-22T07:29:05;97308.81;;;8.67;55.28
49949;BME280;35840;45.982;8.890;2023-12-22T07:31:34;97311.69;;;9.00;54.57
49949;BME280;35840;45.982;8.890;2023-12-22T07:34:01;97301.06;;;9.17;53.37
49949;BME280;35840;45.982;8.890;2023-12-22T07:36:27;97301.78;;;9.30;53.86
49949;BME280;35840;45.982;8.890;2023-12-22T07:38:54;97294.00;;;9.32;54.09
49949;BME280;35840;45.982;8.890;2023-12-22T07:41:24;97287.59;;;9.38;53.72
49949;BME280;35840;45.982;8.890;2023-12-22T07:43:51;97279.28;;;9.34;54.35
49949;BME280;35840;45.982;8.890;2023-12-22T07:46:20;97265.31;;;9.38;53.86
49949;BME280;35840;45.982;8.890;2023-12-22T07:48:50;97267.91;;;9.50;53.67
49949;BME280;35840;45.982;8.890;2023-12-22T07:51:18;97256.59;;;9.52;54.74
49949;BME280;35840;45.982;8.890;2023-12-22T07:53:45;97255.56;;;9.55;53.83
49949;BME280;35840;45.982;8.890;2023-12-22T07:56:11;97281.84;;;9.58;54.73
49949;BME280;35840;45.982;8.890;2023-12-22T07:58:39;97273.31;;;9.58;55.51
49949;BME280;35840;45.982;8.890;2023-12-22T08:01:06;97263.38;;;9.53;55.83
49949;BME280;35840;45.982;8.890;2023-12-22T08:03:33;97250.22;;;9.58;56.18
49949;BME280;35840;45.982;8.890;2023-12-22T08:06:00;97239.03;;;9.59;56.21
49949;BME280;35840;45.982;8.890;2023-12-22T08:08:27;97253.38;;;9.61;57.06
49949;BME280;35840;45.982;8.890;2023-12-22T08:10:54;97265.16;;;9.64;57.32
49949;BME280;35840;45.982;8.890;2023-12-22T08:13:22;97272.25;;;9.60;57.49
49949;BME280;35840;45.982;8.890;2023-12-22T08:15:49;97279.47;;;9.55;57.92
49949;BME280;35840;45.982;8.890;2023-12-22T08:18:16;97267.47;;;9.56;57.93
49949;BME280;35840;45.982;8.890;2023-12-22T08:20:43;97272.84;;;9.53;58.42
49949;BME280;35840;45.982;8.890;2023-12-22T08:23:13;97276.78;;;9.57;58.21
49949;BME280;35840;45.982;8.890;2023-12-22T08:25:40;97276.31;;;9.52;59.13
49949;BME280;35840;45.982;8.890;2023-12-22T08:28:10;97288.00;;;9.56;58.60
49949;BME280;35840;45.982;8.890;2023-12-22T08:30:39;97319.13;;;9.62;58.04
49949;BME280;35840;45.982;8.890;2023-12-22T08:33:06;97299.44;;;9.63;58.37
49949;BME280;35840;45.982;8.890;2023-12-22T08:35:33;97311.22;;;9.54;59.43
49949;BME280;35840;45.982;8.890;2023-12-22T08:38:01;97321.91;;;9.48;59.92
49949;BME280;35840;45.982;8.890;2023-12-22T08:40:29;97332.00;;;9.38;60.20
49949;BME280;35840;45.982;8.890;2023-12-22T08:42:56;97331.78;;;9.30;61.17
49949;BME280;35840;45.982;8.890;2023-12-22T08:45:27;97340.22;;;9.19;61.62
49949;BME280;35840;45.982;8.890;2023-12-22T08:47:57;97349.06;;;9.15;62.39
49949;BME280;35840;45.982;8.890;2023-12-22T08:50:24;97343.41;;;9.10;62.16
49949;BME280;35840;45.982;8.890;2023-12-22T08:52:52;97323.59;;;9.01;62.77
49949;BME280;35840;45.982;8.890;2023-12-22T08:55:19;97356.34;;;9.08;62.99
49949;BME280;35840;45.982;8.890;2023-12-22T08:57:46;97340.97;;;9.08;62.99
49949;BME280;35840;45.982;8.890;2023-12-22T09:00:25;97349.59;;;9.07;63.05
49949;BME280;35840;45.982;8.890;2023-12-22T09:02:52;97350.03;;;9.01;63.23
49949;BME280;35840;45.982;8.890;2023-12-22T09:05:20;97330.75;;;8.95;63.94
49949;BME280;35840;45.982;8.890;2023-12-22T09:07:48;97360.72;;;8.95;64.13
49949;BME280;35840;45.982;8.890;2023-12-22T09:10:16;97355.47;;;8.96;63.73
49949;BME280;35840;45.982;8.890;2023-12-22T09:12:43;97373.75;;;8.92;63.73
49949;BME280;35840;45.982;8.890;2023-12-22T09:15:10;97371.19;;;8.92;62.86
49949;BME280;35840;45.982;8.890;2023-12-22T09:17:37;97377.13;;;8.92;63.12
49949;BME280;35840;45.982;8.890;2023-12-22T09:20:05;97393.94;;;8.96;63.52
49949;BME280;35840;45.982;8.890;2023-12-22T09:22:31;97382.31;;;9.04;62.62
49949;BME280;35840;45.982;8.890;2023-12-22T09:24:58;97410.31;;;9.07;62.86
49949;BME280;35840;45.982;8.890;2023-12-22T09:27:25;97385.22;;;8.99;62.01
49949;BME280;35840;45.982;8.890;2023-12-22T09:29:57;97387.75;;;9.12;61.88
49949;BME280;35840;45.982;8.890;2023-12-22T09:32:23;97384.31;;;9.24;61.27
49949;BME280;35840;45.982;8.890;2023-12-22T09:34:51;97400.78;;;9.33;60.97
49949;BME280;35840;45.982;8.890;2023-12-22T09:37:18;97397.91;;;9.38;60.54
49949;BME280;35840;45.982;8.890;2023-12-22T09:39:44;97375.56;;;9.51;59.88
49949;BME280;35840;45.982;8.890;2023-12-22T09:42:11;97383.06;;;9.54;59.99
49949;BME280;35840;45.982;8.890;2023-12-22T09:44:38;97350.38;;;9.56;59.06
49949;BME280;35840;45.982;8.890;2023-12-22T09:47:07;97361.72;;;9.65;58.67
49949;BME280;35840;45.982;8.890;2023-12-22T09:49:37;97362.44;;;9.67;58.44
49949;BME280;35840;45.982;8.890;2023-12-22T09:52:06;97356.63;;;9.76;58.30
49949;BME280;35840;45.982;8.890;2023-12-22T09:54:34;97363.91;;;9.82;57.18
49949;BME280;35840;45.982;8.890;2023-12-22T09:57:03;97354.81;;;9.90;56.53
49949;BME280;35840;45.982;8.890;2023-12-22T09:59:49;97363.22;;;10.03;56.35
49949;BME280;35840;45.982;8.890;2023-12-22T10:02:18;97374.22;;;10.05;56.61
49949;BME280;35840;45.982;8.890;2023-12-22T10:04:45;97388.56;;;10.08;56.15
49949;BME280;35840;45.982;8.890;2023-12-22T10:07:13;97381.47;;;10.11;55.69
49949;BME280;35840;45.982;8.890;2023-12-22T10:09:42;97360.09;;;10.11;55.32
49949;BME280;35840;45.982;8.890;2023-12-22T10:12:11;97364.09;;;10.15;55.14
49949;BME280;35840;45.982;8.890;2023-12-22T10:14:39;97356.72;;;10.22;54.30
49949;BME280;35840;45.982;8.890;2023-12-22T10:17:07;97365.03;;;10.25;55.39
49949;BME280;35840;45.982;8.890;2023-12-22T10:19:34;97327.31;;;10.26;55.31
49949;BME280;35840;45.982;8.890;2023-12-22T10:22:01;97363.25;;;10.26;54.46
49949;BME280;35840;45.982;8.890;2023-12-22T10:24:43;97333.28;;;10.26;54.99
49949;BME280;35840;45.982;8.890;2023-12-22T10:27:12;97338.66;;;10.34;55.28
49949;BME280;35840;45.982;8.890;2023-12-22T10:29:39;97318.94;;;10.35;54.19
49949;BME280;35840;45.982;8.890;2023-12-22T10:32:07;97327.81;;;10.54;53.12
49949;BME280;35840;45.982;8.890;2023-12-22T10:34:35;97334.59;;;10.55;51.05
49949;BME280;35840;45.982;8.890;2023-12-22T10:37:02;97339.69;;;10.66;50.89
49949;BME280;35840;45.982;8.890;2023-12-22T10:39:30;97345.41;;;10.81;51.09
49949;BME280;35840;45.982;8.890;2023-12-22T10:41:58;97350.44;;;10.82;50.63
49949;BME280;35840;45.982;8.890;2023-12-22T10:44:29;97343.38;;;11.07;48.93
49949;BME280;35840;45.982;8.890;2023-12-22T10:46:57;97330.28;;;11.10;48.69
49949;BME280;35840;45.982;8.890;2023-12-22T10:49:24;97321.03;;;11.08;49.76
49949;BME280;35840;45.982;8.890;2023-12-22T10:51:52;97322.63;;;11.20;48.17
49949;BME280;35840;45.982;8.890;2023-12-22T10:54:19;97320.19;;;11.18;47.79
49949;BME280;35840;45.982;8.890;2023-12-22T10:56:46;97314.44;;;11.26;47.34
49949;BME280;35840;45.982;8.890;2023-12-22T10:59:17;97296.16;;;11.29;46.07
49949;BME280;35840;45.982;8.890;2023-12-22T11:01:45;97285.13;;;11.39;46.07
49949;BME280;35840;45.982;8.890;2023-12-22T11:04:17;97301.13;;;11.42;45.34
49949;BME280;35840;45.982;8.890;2023-12-22T11:06:47;97308.75;;;11.65;45.41
49949;BME280;35840;45.982;8.890;2023-12-22T11:09:16;97291.34;;;11.78;43.55
49949;BME280;35840;45.982;8.890;2023-12-22T11:11:44;97281.06;;;11.99;41.89
49949;BME280;35840;45.982;8.890;2023-12-22T11:14:13;97264.19;;;12.16;41.61
49949;BME280;35840;45.982;8.890;2023-12-22T11:16:41;97258.34;;;12.14;42.77
49949;BME280;35840;45.982;8.890;2023-12-22T11:19:14;97285.47;;;12.18;41.57
49949;BME280;35840;45.982;8.890;2023-12-22T11:21:42;97264.41;;;12.13;43.68
49949;BME280;35840;45.982;8.890;2023-12-22T11:24:10;97257.03;;;11.99;44.75
49949;BME280;35840;45.982;8.890;2023-12-22T11:26:41;97245.38;;;11.95;44.59
49949;BME280;35840;45.982;8.890;2023-12-22T11:29:10;97236.69;;;11.96;41.63
49949;BME280;35840;45.982;8.890;2023-12-22T11:31:37;97258.22;;;12.26;39.25
49949;BME280;35840;45.982;8.890;2023-12-22T11:34:07;97232.09;;;12.40;39.62
49949;BME280;35840;45.982;8.890;2023-12-22T11:36:43;97237.78;;;12.34;42.78
49949;BME280;35840;45.982;8.890;2023-12-22T11:39:11;97249.53;;;12.17;44.02
49949;BME280;35840;45.982;8.890;2023-12-22T11:41:39;97238.06;;;12.00;44.36
49949;BME280;35840;45.982;8.890;2023-12-22T11:44:07;97251.56;;;11.92;44.48
49949;BME280;35840;45.982;8.890;2023-12-22T11:46:35;97234.63;;;11.89;44.82
49949;BME280;35840;45.982;8.890;2023-12-22T11:49:02;97226.97;;;11.99;44.32
49949;BME280;35840;45.982;8.890;2023-12-22T11:51:33;97236.44;;;11.99;43.69
49949;BME280;35840;45.982;8.890;2023-12-22T11:54:03;97234.94;;;11.96;43.92
49949;BME280;35840;45.982;8.890;2023-12-22T11:56:30;97232.59;;;11.93;44.12
49949;BME280;35840;45.982;8.890;2023-12-22T11:58:58;97227.34;;;11.95;44.65
49949;BME280;35840;45.982;8.890;2023-12-22T12:01:26;97214.56;;;11.93;43.69
49949;BME280;35840;45.982;8.890;2023-12-22T12:04:02;97220.31;;;11.97;44.13
49949;BME280;35840;45.982;8.890;2023-12-22T12:06:32;97204.84;;;11.97;44.60
49949;BME280;35840;45.982;8.890;2023-12-22T12:09:03;97199.44;;;12.00;43.13
49949;BME280;35840;45.982;8.890;2023-12-22T12:14:44;97189.66;;;12.03;43.99
49949;BME280;35840;45.982;8.890;2023-12-22T12:17:15;97192.50;;;12.00;43.88
49949;BME280;35840;45.982;8.890;2023-12-22T12:19:45;97178.97;;;11.98;43.31
49949;BME280;35840;45.982;8.890;2023-12-22T12:22:14;97176.78;;;11.94;43.88
49949;BME280;35840;45.982;8.890;2023-12-22T12:24:41;97185.56;;;11.91;44.35
49949;BME280;35840;45.982;8.890;2023-12-22T12:27:09;97171.63;;;11.94;44.10
49949;BME280;35840;45.982;8.890;2023-12-22T12:29:36;97170.31;;;11.99;43.42
49949;BME280;35840;45.982;8.890;2023-12-22T12:32:05;97168.41;;;12.01;43.62
49949;BME280;35840;45.982;8.890;2023-12-22T12:34:34;97152.53;;;12.06;43.31
49949;BME280;35840;45.982;8.890;2023-12-22T12:37:05;97138.03;;;12.15;43.04
49949;BME280;35840;45.982;8.890;2023-12-22T12:39:34;97135.22;;;12.18;42.09
49949;BME280;35840;45.982;8.890;2023-12-22T12:42:01;97133.44;;;12.18;41.95
49949;BME280;35840;45.982;8.890;2023-12-22T12:44:30;97140.75;;;12.13;42.07
49949;BME280;35840;45.982;8.890;2023-12-22T12:46:59;97126.66;;;12.17;42.42
49949;BME280;35840;45.982;8.890;2023-12-22T12:49:27;97125.72;;;12.18;42.48
49949;BME280;35840;45.982;8.890;2023-12-22T12:51:57;97145.25;;;12.21;42.42
49949;BME280;35840;45.982;8.890;2023-12-22T12:54:25;97122.06;;;12.21;41.06
49949;BME280;35840;45.982;8.890;2023-12-22T12:56:53;97137.81;;;12.28;41.57
49949;BME280;35840;45.982;8.890;2023-12-22T12:59:20;97132.09;;;12.24;41.22
49949;BME280;35840;45.982;8.890;2023-12-22T13:01:47;97134.13;;;12.30;40.94
49949;BME280;35840;45.982;8.890;2023-12-22T13:04:15;97123.03;;;12.30;40.69
49949;BME280;35840;45.982;8.890;2023-12-22T13:06:44;97107.84;;;12.27;40.72
49949;BME280;35840;45.982;8.890;2023-12-22T13:09:11;97114.50;;;12.29;41.47
49949;BME280;35840;45.982;8.890;2023-12-22T13:11:40;97111.09;;;12.29;42.50
49949;BME280;35840;45.982;8.890;2023-12-22T13:14:09;97122.75;;;12.33;40.58
49949;BME280;35840;45.982;8.890;2023-12-22T13:16:38;97113.00;;;12.36;40.10
49949;BME280;35840;45.982;8.890;2023-12-22T13:19:06;97123.97;;;12.48;40.20
49949;BME280;35840;45.982;8.890;2023-12-22T13:21:33;97114.75;;;12.55;39.84